createdAt,value
2019-04-21T00:02:08.888Z,102225.33
2019-04-21T00:04:52.018Z,102225.66
2019-04-21T00:07:31.881Z,102215.30
2019-04-21T00:10:07.602Z,102216.63
2019-04-21T00:12:34.467Z,102218.68
2019-04-21T00:15:01.993Z,102214.06
2019-04-21T00:17:27.031Z,102218.84
2019-04-21T00:20:15.533Z,102206.77
2019-04-21T00:22:47.728Z,102211.55
2019-04-21T00:25:24.874Z,102203.28
2019-04-21T00:27:58.836Z,102203.68
2019-04-21T00:30:34.201Z,102203.92
2019-04-21T00:32:58.788Z,102201.08
2019-04-21T00:35:25.779Z,102193.34
2019-04-21T00:38:20.616Z,102195.42
2019-04-21T00:40:47.901Z,102192.94
2019-04-21T00:43:16.905Z,102190.94
2019-04-21T00:45:44.444Z,102190.58
2019-04-21T00:48:29.785Z,102191.29
2019-04-21T00:51:16.973Z,102191.24
2019-04-21T00:53:44.048Z,102185.02
2019-04-21T00:56:15.592Z,102183.11
2019-04-21T00:58:47.855Z,102189.18
2019-04-21T01:01:15.017Z,102190.56
2019-04-21T01:03:58.114Z,102186.83
2019-04-21T01:06:33.760Z,102184.50
2019-04-21T01:08:59.045Z,102193.06
2019-04-21T01:11:33.374Z,102191.66
2019-04-21T01:14:05.262Z,102186.59
2019-04-21T01:16:39.263Z,102186.53
2019-04-21T01:19:12.090Z,102189.71
2019-04-21T01:21:22.941Z,102184.12
2019-04-21T01:23:55.633Z,102187.45
2019-04-21T01:26:40.962Z,102176.50
2019-04-21T01:29:15.969Z,102176.50
2019-04-21T01:31:51.244Z,102187.28
2019-04-21T01:34:29.030Z,102175.09
2019-04-21T01:36:58.660Z,102172.27
2019-04-21T01:39:38.742Z,102171.75
2019-04-21T01:42:03.528Z,102171.27
2019-04-21T01:44:44.987Z,102174.30
2019-04-21T01:47:06.660Z,102169.94
2019-04-21T01:49:34.503Z,102170.34
2019-04-21T01:52:24.581Z,102172.81
2019-04-21T01:55:08.343Z,102170.47
2019-04-21T01:57:57.482Z,102174.34
2019-04-21T02:00:45.155Z,102170.20
2019-04-21T02:03:43.920Z,102168.98
2019-04-21T02:05:58.587Z,102167.88
2019-04-21T02:08:28.795Z,102173.91
2019-04-21T02:11:05.208Z,102171.27
2019-04-21T02:13:44.304Z,102165.81
2019-04-21T02:16:06.853Z,102168.76
2019-04-21T02:18:42.195Z,102164.70
2019-04-21T02:21:00.489Z,102169.37
2019-04-21T02:24:07.084Z,102171.00
2019-04-21T02:26:22.867Z,102167.26
2019-04-21T02:28:57.087Z,102165.35
2019-04-21T02:31:39.584Z,102156.42
2019-04-21T02:34:08.774Z,102159.77
2019-04-21T02:39:18.018Z,102158.66
2019-04-21T02:44:32.703Z,102161.34
2019-04-21T02:46:50.596Z,102152.19
2019-04-21T02:49:35.363Z,102151.47
2019-04-21T02:52:02.137Z,102149.88
2019-04-21T02:54:48.190Z,102144.28
2019-04-21T02:57:14.338Z,102143.91
2019-04-21T02:59:59.588Z,102142.28
2019-04-21T03:02:47.299Z,102138.41
2019-04-21T03:13:13.885Z,102125.44
2019-04-21T03:18:12.887Z,102109.31
2019-04-21T03:20:53.293Z,102110.02
2019-04-21T03:23:27.597Z,102114.61
2019-04-21T03:26:05.018Z,102115.92
2019-04-21T03:28:32.148Z,102116.72
2019-04-21T03:31:18.848Z,102109.11
2019-04-21T03:41:12.367Z,102096.55
2019-04-21T03:43:46.475Z,102108.31
2019-04-21T03:46:24.804Z,102108.52
2019-04-21T03:48:52.006Z,102103.55
2019-04-21T03:53:56.960Z,102101.41
2019-04-21T03:59:11.700Z,102105.04
2019-04-21T04:01:58.372Z,102100.11
2019-04-21T04:04:49.876Z,102098.16
2019-04-21T04:07:50.121Z,102099.59
2019-04-21T04:10:11.834Z,102099.66
2019-04-21T04:15:26.017Z,102095.22
2019-04-21T04:17:50.346Z,102102.39
2019-04-21T04:23:10.227Z,102100.84
2019-04-21T04:25:25.397Z,102102.50
2019-04-21T04:28:08.596Z,102107.63
2019-04-21T04:33:08.053Z,102106.94
2019-04-21T04:35:52.805Z,102108.55
2019-04-21T04:38:24.120Z,102106.70
2019-04-21T04:40:55.948Z,102107.53
2019-04-21T04:43:28.560Z,102104.89
2019-04-21T04:46:02.650Z,102100.55
2019-04-21T04:48:35.364Z,102104.08
2019-04-21T04:51:01.307Z,102100.42
2019-04-21T04:56:10.438Z,102107.20
2019-04-21T04:59:23.381Z,102091.30
2019-04-21T05:03:57.049Z,102102.72
2019-04-21T05:09:11.379Z,102097.78
2019-04-21T05:11:46.414Z,102102.13
2019-04-21T05:16:57.669Z,102108.31
2019-04-21T05:19:16.016Z,102098.67
2019-04-21T05:24:07.509Z,102094.42
2019-04-21T05:26:45.959Z,102094.03
2019-04-21T05:29:10.914Z,102094.62
2019-04-21T05:32:07.882Z,102096.07
2019-04-21T05:34:43.107Z,102094.13
2019-04-21T05:37:36.915Z,102099.33
2019-04-21T05:40:29.852Z,102091.33
2019-04-21T05:43:04.432Z,102088.11
2019-04-21T05:45:40.556Z,102091.56
2019-04-21T05:48:39.248Z,102095.80
2019-04-21T05:50:55.503Z,102090.77
2019-04-21T05:53:36.980Z,102093.30
2019-04-21T05:56:09.981Z,102091.88
2019-04-21T05:58:39.171Z,102093.52
2019-04-21T06:03:54.955Z,102090.97
2019-04-21T06:08:54.045Z,102083.97
2019-04-21T06:11:30.903Z,102081.46
2019-04-21T06:14:04.714Z,102081.75
2019-04-21T06:16:40.729Z,102084.48
2019-04-21T06:19:05.175Z,102081.65
2019-04-21T06:21:41.748Z,102079.83
2019-04-21T06:24:13.021Z,102082.88
2019-04-21T06:26:59.262Z,102085.89
2019-04-21T06:29:15.208Z,102085.90
2019-04-21T06:32:16.670Z,102085.88
2019-04-21T06:34:24.784Z,102086.38
2019-04-21T06:37:29.934Z,102089.81
2019-04-21T06:39:59.587Z,102079.58
2019-04-21T06:42:16.520Z,102081.82
2019-04-21T06:49:53.691Z,102073.75
2019-04-21T06:55:10.310Z,102068.73
2019-04-21T06:57:35.804Z,102068.78
2019-04-21T07:00:10.385Z,102076.78
2019-04-21T07:03:04.650Z,102074.18
2019-04-21T07:05:14.072Z,102068.05
2019-04-21T07:07:56.001Z,102068.52
2019-04-21T07:10:21.019Z,102060.98
2019-04-21T07:12:51.076Z,102064.98
2019-04-21T07:15:25.196Z,102056.19
2019-04-21T07:17:58.198Z,102057.89
2019-04-21T07:20:28.248Z,102049.41
2019-04-21T07:23:07.562Z,102061.48
2019-04-21T07:25:41.211Z,102054.00
2019-04-21T07:28:14.079Z,102053.09
2019-04-21T07:30:45.359Z,102052.33
2019-04-21T07:33:38.888Z,102052.94
2019-04-21T07:35:43.306Z,102045.86
2019-04-21T07:38:16.585Z,102042.86
2019-04-21T07:40:45.559Z,102040.81
2019-04-21T07:43:20.782Z,102036.13
2019-04-21T07:45:56.452Z,102037.13
2019-04-21T07:48:38.983Z,102035.19
2019-04-21T07:51:25.457Z,102030.41
2019-04-21T07:54:09.091Z,102034.04
2019-04-21T07:56:21.757Z,102033.41
2019-04-21T07:59:05.311Z,102033.58
2019-04-21T08:01:37.010Z,102032.02
2019-04-21T08:04:24.862Z,102033.09
2019-04-21T08:06:46.482Z,102028.42
2019-04-21T08:09:19.757Z,102031.22
2019-04-21T08:11:48.695Z,102014.25
2019-04-21T08:14:31.233Z,102029.63
2019-04-21T08:16:58.894Z,102026.67
2019-04-21T08:19:31.023Z,102023.73
2019-04-21T08:22:32.133Z,102019.47
2019-04-21T08:24:34.741Z,102020.06
2019-04-21T08:27:10.973Z,102020.69
2019-04-21T08:29:46.475Z,102012.83
2019-04-21T08:32:31.124Z,102019.16
2019-04-21T08:34:55.962Z,102013.88
2019-04-21T08:37:27.573Z,102008.94
2019-04-21T08:40:07.433Z,102008.57
2019-04-21T08:42:33.181Z,102008.65
2019-04-21T08:45:00.610Z,102004.27
2019-04-21T08:47:44.182Z,102001.17
2019-04-21T08:50:11.761Z,101992.31
2019-04-21T08:55:25.135Z,101992.59
2019-04-21T08:58:08.433Z,101987.11
2019-04-21T09:00:49.473Z,101982.07
2019-04-21T09:03:54.023Z,101982.81
2019-04-21T09:08:52.239Z,101975.64
2019-04-21T09:11:22.680Z,101968.86
2019-04-21T09:14:05.201Z,101972.31
2019-04-21T09:16:33.461Z,101968.70
2019-04-21T09:18:59.487Z,101966.31
2019-04-21T09:21:39.246Z,101958.14
2019-04-21T09:24:11.443Z,101966.94
2019-04-21T09:26:40.982Z,101956.20
2019-04-21T09:29:09.285Z,101953.44
2019-04-21T09:31:37.459Z,101954.72
2019-04-21T09:34:06.554Z,101948.88
2019-04-21T09:36:44.176Z,101945.66
2019-04-21T09:39:16.625Z,101943.66
2019-04-21T09:41:51.156Z,101941.59
2019-04-21T09:44:25.955Z,101935.55
2019-04-21T09:46:55.970Z,101937.17
2019-04-21T09:49:29.062Z,101930.80
2019-04-21T09:51:57.726Z,101931.60
2019-04-21T09:54:33.425Z,101933.80
2019-04-21T09:57:07.514Z,101929.27
2019-04-21T09:59:38.696Z,101923.34
2019-04-21T10:02:16.095Z,101921.45
2019-04-21T10:04:42.316Z,101917.77
2019-04-21T10:07:24.584Z,101907.80
2019-04-21T10:09:47.894Z,101905.77
2019-04-21T10:12:19.972Z,101904.73
2019-04-21T10:14:51.834Z,101880.31
2019-04-21T10:17:37.349Z,101892.46
2019-04-21T10:20:09.537Z,101889.70
2019-04-21T10:22:41.336Z,101878.91
2019-04-21T10:25:12.860Z,101879.23
2019-04-21T10:27:45.170Z,101872.42
2019-04-21T10:30:16.584Z,101869.61
2019-04-21T10:32:48.368Z,101862.78
2019-04-21T10:35:21.808Z,101861.27
2019-04-21T10:38:04.387Z,101854.35
2019-04-21T10:40:25.767Z,101863.63
2019-04-21T10:42:58.320Z,101849.60
2019-04-21T10:45:30.827Z,101847.64
2019-04-21T10:48:03.067Z,101847.43
2019-04-21T10:50:34.840Z,101846.84
2019-04-21T10:53:11.099Z,101831.42
2019-04-21T10:55:57.997Z,101827.09
2019-04-21T10:58:24.833Z,101828.07
2019-04-21T11:01:14.242Z,101822.86
2019-04-21T11:03:58.960Z,101821.66
2019-04-21T11:06:30.796Z,101818.33
2019-04-21T11:09:03.691Z,101817.64
2019-04-21T11:11:37.684Z,101812.03
2019-04-21T11:14:08.967Z,101807.72
2019-04-21T11:16:41.567Z,101804.22
2019-04-21T11:19:13.746Z,101802.42
2019-04-21T11:21:45.116Z,101797.62
2019-04-21T11:24:18.023Z,101786.16
2019-04-21T11:26:49.738Z,101789.02
2019-04-21T11:29:23.312Z,101780.70
2019-04-21T11:31:54.887Z,101777.80
2019-04-21T11:34:27.278Z,101777.60
2019-04-21T11:36:58.758Z,101776.48
2019-04-21T11:39:37.545Z,101774.54
2019-04-21T11:42:10.087Z,101770.30
2019-04-21T11:44:41.705Z,101766.89
2019-04-21T11:47:22.737Z,101765.70
2019-04-21T11:49:54.931Z,101762.77
2019-04-21T11:52:27.239Z,101763.33
2019-04-21T11:54:58.732Z,101753.56
2019-04-21T11:57:34.948Z,101753.61
2019-04-21T12:00:03.935Z,101745.70
2019-04-21T12:02:37.417Z,101738.25
2019-04-21T12:05:11.623Z,101739.22
2019-04-21T12:07:43.226Z,101741.14
2019-04-21T12:10:15.600Z,101740.39
2019-04-21T12:12:47.872Z,101732.42
2019-04-21T12:15:19.143Z,101732.14
2019-04-21T12:17:50.496Z,101727.34
2019-04-21T12:20:21.726Z,101719.02
2019-04-21T12:22:53.060Z,101718.72
2019-04-21T12:25:27.250Z,101708.61
2019-04-21T12:27:58.567Z,101711.45
2019-04-21T12:30:29.766Z,101707.48
2019-04-21T12:33:24.285Z,101696.41
2019-04-21T12:35:55.697Z,101697.87
2019-04-21T12:38:36.493Z,101689.75
2019-04-21T12:41:00.402Z,101687.30
2019-04-21T12:43:32.860Z,101658.91
2019-04-21T12:46:04.397Z,101658.91
2019-04-21T12:48:35.855Z,101663.44
2019-04-21T12:51:07.865Z,101663.84
2019-04-21T12:53:39.551Z,101661.98
2019-04-21T12:56:11.809Z,101650.63
2019-04-21T12:58:43.547Z,101650.95
2019-04-21T13:01:14.992Z,101640.39
2019-04-21T13:03:46.239Z,101638.87
2019-04-21T13:06:17.451Z,101640.13
2019-04-21T13:08:55.674Z,101630.42
2019-04-21T13:11:21.737Z,101624.79
2019-04-21T13:13:53.653Z,101620.13
2019-04-21T13:16:25.427Z,101607.72
2019-04-21T13:18:57.855Z,101609.72
2019-04-21T13:21:29.939Z,101603.46
2019-04-21T13:24:01.465Z,101604.55
2019-04-21T13:26:39.444Z,101599.34
2019-04-21T13:29:06.022Z,101600.46
2019-04-21T13:31:38.434Z,101600.07
2019-04-21T13:34:10.457Z,101591.27
2019-04-21T13:36:41.793Z,101585.23
2019-04-21T13:39:56.636Z,101578.25
2019-04-21T13:42:13.216Z,101577.17
2019-04-21T13:44:39.172Z,101575.98
2019-04-21T13:47:10.571Z,101573.78
2019-04-21T13:49:43.363Z,101571.28
2019-04-21T13:52:14.968Z,101569.86
2019-04-21T13:54:47.439Z,101562.41
2019-04-21T13:57:18.856Z,101562.37
2019-04-21T13:59:51.407Z,101552.02
2019-04-21T14:02:22.749Z,101558.48
2019-04-21T14:04:54.048Z,101560.90
2019-04-21T14:07:26.116Z,101557.09
2019-04-21T14:10:02.566Z,101549.88
2019-04-21T14:12:31.573Z,101547.58
2019-04-21T14:15:04.150Z,101544.36
2019-04-21T14:17:37.014Z,101532.95
2019-04-21T14:20:09.114Z,101531.11
2019-04-21T14:22:40.508Z,101531.30
2019-04-21T14:25:12.118Z,101527.10
2019-04-21T14:27:45.675Z,101527.27
2019-04-21T14:30:16.638Z,101518.57
2019-04-21T14:32:47.866Z,101513.24
2019-04-21T14:35:20.870Z,101522.17
2019-04-21T14:37:52.908Z,101523.25
2019-04-21T14:40:27.749Z,101511.84
2019-04-21T14:42:58.335Z,101508.48
2019-04-21T14:45:58.972Z,101508.40
2019-04-21T14:48:48.771Z,101504.70
2019-04-21T14:51:37.175Z,101502.20
2019-04-21T14:54:17.327Z,101502.20
2019-04-21T14:56:49.349Z,101498.71
2019-04-21T14:59:21.381Z,101494.33
2019-04-21T15:01:53.662Z,101494.58
2019-04-21T15:04:25.752Z,101496.67
2019-04-21T15:06:57.126Z,101485.30
2019-04-21T15:09:29.351Z,101490.21
2019-04-21T15:12:02.392Z,101491.45
2019-04-21T15:14:33.873Z,101481.91
2019-04-21T15:17:05.145Z,101481.05
2019-04-21T15:19:36.332Z,101474.41
2019-04-21T15:22:08.236Z,101478.35
2019-04-21T15:24:40.436Z,101475.02
2019-04-21T15:27:12.760Z,101474.78
2019-04-21T15:29:44.846Z,101463.89
2019-04-21T15:32:16.894Z,101465.08
2019-04-21T15:34:48.172Z,101465.08
2019-04-21T15:37:19.961Z,101464.72
2019-04-21T15:39:51.300Z,101457.41
2019-04-21T15:42:22.597Z,101456.15
2019-04-21T15:44:54.848Z,101455.06
2019-04-21T15:47:26.269Z,101446.20
2019-04-21T15:50:04.773Z,101442.67
2019-04-21T15:52:31.646Z,101445.20
2019-04-21T15:55:08.394Z,101437.78
2019-04-21T15:58:02.741Z,101434.34
2019-04-21T16:00:58.885Z,101438.81
2019-04-21T16:03:31.092Z,101440.35
2019-04-21T16:06:03.315Z,101431.13
2019-04-21T16:08:35.235Z,101429.52
2019-04-21T16:11:09.283Z,101423.67
2019-04-21T16:13:39.717Z,101419.94
2019-04-21T16:16:12.655Z,101419.00
2019-04-21T16:18:43.929Z,101416.05
2019-04-21T16:21:15.962Z,101407.09
2019-04-21T16:23:48.620Z,101408.53
2019-04-21T16:26:22.248Z,101416.50
2019-04-21T16:28:55.207Z,101409.05
2019-04-21T16:31:27.674Z,101410.27
2019-04-21T16:33:59.228Z,101404.69
2019-04-21T16:36:31.803Z,101403.52
2019-04-21T16:39:05.178Z,101402.69
2019-04-21T16:41:38.413Z,101396.86
2019-04-21T16:44:11.208Z,101394.13
2019-04-21T16:46:43.365Z,101392.34
2019-04-21T16:49:15.872Z,101393.71
2019-04-21T16:51:50.027Z,101391.09
2019-04-21T16:54:26.237Z,101385.25
2019-04-21T16:57:29.946Z,101385.79
2019-04-21T17:00:08.707Z,101384.00
2019-04-21T17:02:40.859Z,101378.14
2019-04-21T17:05:12.264Z,101378.59
2019-04-21T17:07:44.977Z,101377.55
2019-04-21T17:10:17.023Z,101369.81
2019-04-21T17:12:48.313Z,101373.72
2019-04-21T17:15:35.666Z,101374.02
2019-04-21T17:18:08.834Z,101377.88
2019-04-21T17:20:38.170Z,101376.30
2019-04-21T17:22:59.663Z,101380.09
2019-04-21T17:25:32.080Z,101377.04
2019-04-21T17:28:03.635Z,101369.99
2019-04-21T17:30:35.175Z,101376.39
2019-04-21T17:33:11.252Z,101374.67
2019-04-21T17:35:40.797Z,101372.52
2019-04-21T17:38:12.234Z,101371.20
2019-04-21T17:40:44.043Z,101377.11
2019-04-21T17:43:17.972Z,101368.59
2019-04-21T17:45:48.955Z,101374.01
2019-04-21T17:48:21.590Z,101365.51
2019-04-21T17:51:05.295Z,101367.30
2019-04-21T17:53:47.783Z,101368.61
2019-04-21T17:56:46.266Z,101359.65
2019-04-21T17:59:04.170Z,101369.48
2019-04-21T18:01:45.045Z,101372.60
2019-04-21T18:04:15.252Z,101373.43
2019-04-21T18:07:10.245Z,101371.59
2019-04-21T18:09:56.565Z,101375.08
2019-04-21T18:12:16.585Z,101378.52
2019-04-21T18:14:34.655Z,101381.53
2019-04-21T18:17:06.510Z,101381.03
2019-04-21T18:19:41.775Z,101375.13
2019-04-21T18:22:32.105Z,101379.07
2019-04-21T18:25:11.815Z,101378.95
2019-04-21T18:27:38.756Z,101378.82
2019-04-21T18:30:49.874Z,101379.60
2019-04-21T18:33:27.445Z,101375.91
2019-04-21T18:36:29.061Z,101386.55
2019-04-21T18:39:29.924Z,101385.05
2019-04-21T18:42:09.633Z,101386.69
2019-04-21T18:45:20.625Z,101386.48
2019-04-21T18:47:55.463Z,101391.28
2019-04-21T18:50:41.552Z,101390.69
2019-04-21T18:53:19.434Z,101392.32
2019-04-21T18:55:47.125Z,101394.00
2019-04-21T18:58:15.841Z,101391.62
2019-04-21T19:00:48.759Z,101396.84
2019-04-21T19:03:29.234Z,101395.28
2019-04-21T19:06:03.871Z,101397.38
2019-04-21T19:08:48.523Z,101397.67
2019-04-21T19:11:18.974Z,101397.53
2019-04-21T19:14:29.048Z,101401.83
2019-04-21T19:22:00.385Z,101404.52
2019-04-21T19:24:32.023Z,101409.27
2019-04-21T19:27:04.932Z,101406.44
2019-04-21T19:29:31.966Z,101403.52
2019-04-21T19:32:10.487Z,101403.52
2019-04-21T19:34:28.172Z,101398.86
2019-04-21T19:37:03.104Z,101404.19
2019-04-21T19:39:41.701Z,101410.25
2019-04-21T19:42:12.020Z,101410.09
2019-04-21T19:44:52.217Z,101404.14
2019-04-21T19:47:28.178Z,101405.78
2019-04-21T19:50:01.435Z,101413.66
2019-04-21T19:52:26.579Z,101408.09
2019-04-21T19:54:50.108Z,101402.06
2019-04-21T19:57:20.846Z,101406.84
2019-04-21T19:59:55.891Z,101403.14
2019-04-21T20:02:26.807Z,101406.16
2019-04-21T20:05:04.954Z,101414.02
2019-04-21T20:07:45.790Z,101410.32
2019-04-21T20:10:27.174Z,101411.53
2019-04-21T20:12:57.030Z,101410.05
2019-04-21T20:15:37.423Z,101407.70
2019-04-21T20:17:58.332Z,101403.61
2019-04-21T20:20:17.457Z,101404.37
2019-04-21T20:22:51.890Z,101405.58
2019-04-21T20:25:23.683Z,101396.14
2019-04-21T20:28:05.458Z,101396.41
2019-04-21T20:30:42.433Z,101399.41
2019-04-21T20:33:42.909Z,101397.06
2019-04-21T20:35:59.203Z,101394.33
2019-04-21T20:38:19.193Z,101391.98
2019-04-21T20:40:51.014Z,101392.31
2019-04-21T20:43:38.685Z,101398.39
2019-04-21T20:46:17.201Z,101401.83
2019-04-21T20:48:34.729Z,101395.91
2019-04-21T20:51:11.866Z,101399.81
2019-04-21T20:53:42.601Z,101399.67
2019-04-21T20:56:11.408Z,101399.99
2019-04-21T20:58:53.703Z,101396.77
2019-04-21T21:03:55.641Z,101390.77
2019-04-21T21:06:26.345Z,101395.08
2019-04-21T21:09:01.620Z,101388.73
2019-04-21T21:11:56.846Z,101390.84
2019-04-21T21:14:07.502Z,101390.66
2019-04-21T21:16:46.399Z,101390.44
2019-04-21T21:21:45.694Z,101394.56
2019-04-21T21:24:29.052Z,101388.52
2019-04-21T21:26:54.623Z,101391.60
2019-04-21T21:29:31.593Z,101398.56
2019-04-21T21:32:06.865Z,101395.30
2019-04-21T21:34:35.878Z,101396.92
2019-04-21T21:37:11.494Z,101395.41
2019-04-21T21:39:47.207Z,101395.21
2019-04-21T21:42:00.941Z,101397.80
2019-04-21T21:44:28.296Z,101399.87
2019-04-21T21:47:09.791Z,101403.26
2019-04-21T21:49:46.786Z,101395.15
2019-04-21T21:52:13.250Z,101391.88
2019-04-21T21:54:38.354Z,101396.66
2019-04-21T21:57:10.294Z,101393.42
2019-04-21T21:59:42.228Z,101390.63
2019-04-21T22:02:24.099Z,101388.27
2019-04-21T22:04:56.910Z,101391.31
2019-04-21T22:07:26.909Z,101383.63
2019-04-21T22:09:54.575Z,101381.70
2019-04-21T22:12:28.755Z,101387.73
2019-04-21T22:15:04.540Z,101382.75
2019-04-21T22:17:53.027Z,101383.91
2019-04-21T22:20:27.812Z,101379.80
2019-04-21T22:22:49.852Z,101377.88
2019-04-21T22:25:20.630Z,101375.87
2019-04-21T22:27:45.398Z,101382.31
2019-04-21T22:30:24.692Z,101381.69
2019-04-21T22:32:58.012Z,101379.27
2019-04-21T22:35:31.625Z,101380.38
2019-04-21T22:38:10.633Z,101383.68
2019-04-21T22:40:45.334Z,101382.63
2019-04-21T22:43:14.259Z,101377.09
2019-04-21T22:45:35.654Z,101387.13
2019-04-21T22:48:14.415Z,101385.20
2019-04-21T22:50:40.681Z,101377.97
2019-04-21T22:53:13.805Z,101391.54
2019-04-21T22:55:45.131Z,101379.44
2019-04-21T22:58:24.819Z,101388.14
2019-04-21T23:00:54.640Z,101381.41
2019-04-21T23:03:25.282Z,101380.77
2019-04-21T23:06:01.076Z,101386.80
2019-04-21T23:08:34.541Z,101383.14
2019-04-21T23:11:08.141Z,101382.91
2019-04-21T23:13:36.332Z,101380.15
2019-04-21T23:16:08.527Z,101387.47
2019-04-21T23:18:59.436Z,101385.48
2019-04-21T23:21:27.785Z,101387.95
2019-04-21T23:24:05.098Z,101384.65
2019-04-21T23:26:37.904Z,101384.95
2019-04-21T23:29:15.533Z,101389.25
2019-04-21T23:31:47.108Z,101394.40
2019-04-21T23:34:00.122Z,101399.05
2019-04-21T23:36:33.398Z,101394.88
2019-04-21T23:39:13.194Z,101395.12
2019-04-21T23:41:43.706Z,101393.14
2019-04-21T23:44:14.135Z,101392.89
2019-04-21T23:46:45.956Z,101387.86
2019-04-21T23:49:29.667Z,101382.39
2019-04-21T23:51:56.780Z,101391.06
2019-04-21T23:54:23.210Z,101384.68
2019-04-21T23:56:55.828Z,101383.16
2019-04-21T23:59:32.388Z,101380.80
